LSME

Details ICAO LSME (EML)
Name Emmen
Region Switzerland
Timezone Europe/Zurich (UTC+2.0)
Plans Departing 71
Arriving 75
Stats Elevation 1,400 ft / 427 m (AMSL)
Location 47.092400° 8.305120°
Runways 1
Magnetic Variation 2.457° E
Sunrise 2019-05-19 03:48:25 UTC / 2019-05-19 05:48:25 Local
Sunset 2019-05-19 19:00:53 UTC / 2019-05-19 21:00:53 Local
Advertisement - Login to hide

Runways

ID Width Length Bearing (true/mag) Surface Threshold Overrun Markings Lighting
04 130 ft / 40 m 8,202 ft / 2,500 m 37.49° / 35.03° ASPHALT 363 ft / 111 m 810 ft / 247 m PREC-APP CENTERLINE EDGE THRESHOLD REIL-OMNI
22 130 ft / 40 m 8,202 ft / 2,500 m 217.51° / 215.05° ASPHALT 596 ft / 182 m 747 ft / 228 m PREC-APP CENTERLINE EDGE THRESHOLD REIL-OMNI

Approach Navaids

Runway Type Ident Frequency Range Bearing (true/mag) Slope Elevation
22 GS IEM 110.35 MHz 10 nm / 19 km 218.00° / 215.54° 4.00° 1,406 ft / 429 m (AMSL)
22 DME IEM 110.35 MHz 18 nm / 33 km - - 1,406 ft / 429 m (AMSL)
22 LOC-ILS IEM 110.35 MHz 18 nm / 33 km 217.57° / 215.11° - 1,400 ft / 427 m (AMSL)

Map

Weather


0- 5 10 15 20 25 30 35+ Temperature / °C

Clouds and Precipitation
Forecast for 2019-05-19 06:00 UTC. Updated 3 hours ago

Ground ~20,000 ft ~40,000 ft Winds

METAR

LSME 190650Z AUTO 00000KT 9999NDV FEW006 BKN008 OVC027 12/10 Q1005 RMK

TAF

Not found

Frequencies

Approach 119.50 MHz ARR/DEP
Tower 120.42 MHz
Warning: Do not use this data for real-world aviation or navigation. No guarantee of current accuracy is given.